Dimitris P — A8ZU5 — position and weather

sailwx.info

Track history (hours):
 
Tides and Currents Weather Stations Pressure Air Temp Water Temp Dewpoint Dewpoint Depression Visibility Wind Speed Wind Dir Waves Ship Positions

Dimitris P

Last reported at 2017-Dec-18 10:16 UTC. Time now 2017-Dec-18 22:39 UTC.
Position N 41°01' E 028°60'.

Length 274 m; draft 9.5 m.

Type: Ship. MMSI: 636015302.

Date/timePositionNaut miles runAvg speedWind from/ knotsBaromVisibWave heightAir tempDewpointWater temp
2017-Dec-18 10:16N 41°01' E 028°60'310.3
2017-Dec-18 10:00N 40°59' E 028°60'611.3
2017-Dec-18 09:30N 40°53' E 029°00'5 2.7
2017-Dec-18 07:34N 40°48' E 029°00'0 0.7
2017-Dec-18 07:30N 40°48' E 029°00'5 8.5
2017-Dec-18 06:55N 40°45' E 028°54'7 1.4
2017-Dec-18 01:46N 40°40' E 028°48'2 1.3
2017-Dec-18 00:28N 40°42' E 028°49'1 1.2
2017-Dec-17 23:46N 40°42' E 028°50'0 0.7
2017-Dec-17 23:16N 40°42' E 028°50'1 3.5
2017-Dec-17 22:59N 40°41' E 028°50'0 0.9
2017-Dec-17 22:30N 40°41' E 028°51'2 1.5
2017-Dec-17 20:56N 40°43' E 028°50'4 9.2
2017-Dec-17 20:30N 40°42' E 028°55'7 1.0
2017-Dec-17 13:49N 40°46' E 028°49'4 3.4
2017-Dec-17 12:36N 40°49' E 028°51'0 0.9
2017-Dec-17 12:31N 40°49' E 028°51'1 0.8
2017-Dec-17 11:00N 40°48' E 028°52'1 1.1
2017-Dec-17 10:24N 40°48' E 028°53'0 0.9
2017-Dec-17 10:00N 40°47' E 028°53'0 0.9
2017-Dec-17 09:30N 40°47' E 028°53'0 0.4
2017-Dec-17 08:55N 40°47' E 028°53'4 4.9
2017-Dec-17 08:13N 40°50' E 028°53'1 6.9
2017-Dec-17 08:00N 40°51' E 028°52'1 2.1
2017-Dec-17 07:23N 40°52' E 028°53'0 1.0
2017-Dec-17 06:59N 40°51' E 028°54'1 1.0
2017-Dec-17 06:29N 40°51' E 028°54'1 1.2
2017-Dec-17 05:41N 40°50' E 028°54'0 1.2
2017-Dec-17 05:29N 40°50' E 028°54'1 1.1
2017-Dec-17 04:59N 40°49' E 028°54'1 1.1
2017-Dec-17 04:29N 40°49' E 028°55'0 0.9
2017-Dec-17 03:59N 40°48' E 028°55'0 0.7
2017-Dec-17 03:29N 40°48' E 028°55'0 0.7
2017-Dec-17 02:59N 40°48' E 028°55'0 0.8
2017-Dec-17 02:29N 40°47' E 028°55'0 0.6
2017-Dec-17 01:59N 40°47' E 028°55'0 0.1
2017-Dec-16 23:53N 40°47' E 028°55'0 0.3
2017-Dec-16 23:29N 40°47' E 028°55'1 0.6
2017-Dec-16 22:35N 40°46' E 028°55'1 0.5
2017-Dec-16 21:11N 40°45' E 028°55'0 0.3
2017-Dec-16 20:59N 40°45' E 028°55'3 4.2
2017-Dec-16 20:11N 40°48' E 028°58'3 0.9
2017-Dec-16 16:58N 40°48' E 028°55'3 5.3
2017-Dec-16 16:30N 40°48' E 028°51'146 4.1
2017-Dec-15 04:30N 39°47' E 025°57'0 0.0
2017-Dec-15 03:45N 39°47' E 025°57'77 1.8
2017-Dec-13 09:49N 38°41' E 025°07'2412.5
2017-Dec-13 07:55N 38°20' E 024°53'512.6
2017-Dec-13 07:30N 38°15' E 024°50'1812.4
2017-Dec-13 06:05N 37°59' E 024°40'114.0
2017-Dec-13 06:00N 37°58' E 024°39'612.3
2017-Dec-13 05:30N 37°54' E 024°34'612.2
2017-Dec-13 05:00N 37°50' E 024°28'612.6
2017-Dec-13 04:30N 37°46' E 024°22'612.5
2017-Dec-13 04:00N 37°42' E 024°16'612.8
2017-Dec-13 03:30N 37°36' E 024°12'612.6
2017-Dec-13 03:00N 37°31' E 024°08'612.5
2017-Dec-13 02:30N 37°25' E 024°04'612.2
2017-Dec-13 02:00N 37°20' E 024°01'612.2
2017-Dec-13 01:30N 37°14' E 023°58'611.8
2017-Dec-13 01:00N 37°09' E 023°55'612.1
2017-Dec-13 00:29N 37°03' E 023°51'612.2
2017-Dec-13 00:00N 36°58' E 023°48'612.0
2017-Dec-12 23:30N 36°52' E 023°45'612.0
2017-Dec-12 23:00N 36°47' E 023°42'612.2
2017-Dec-12 22:30N 36°41' E 023°39'612.6
2017-Dec-12 22:00N 36°36' E 023°36'612.7
2017-Dec-12 21:30N 36°30' E 023°32'612.6
2017-Dec-12 21:00N 36°24' E 023°29'40911.8
2017-Dec-11 10:19N 36°19' E 015°02'412.8
2017-Dec-11 10:00N 36°20' E 014°57'713.6
2017-Dec-11 09:30N 36°20' E 014°48'713.2
2017-Dec-11 09:00N 36°20' E 014°40'612.4
2017-Dec-11 08:30N 36°23' E 014°33'612.6
2017-Dec-11 08:00N 36°26' E 014°27'613.1
2017-Dec-11 07:30N 36°30' E 014°20'714.4
2017-Dec-11 07:00N 36°34' E 014°12'714.2
2017-Dec-11 06:30N 36°38' E 014°05'62412.5
2017-Dec-09 04:45N 40°53' E 001°55'313.4
2017-Dec-09 04:30N 40°55' E 001°51'813.6
2017-Dec-09 03:54N 40°57' E 001°41'  
Track history (hours):
 
Tides and Currents Weather Stations Pressure Air Temp Water Temp Dewpoint Dewpoint Depression Visibility Wind Speed Wind Dir Waves Ship Positions

Dimitris P

Last reported at 2017-Dec-18 10:16 UTC. Time now 2017-Dec-18 22:39 UTC.
Position N 41°01' E 028°60'.

Length 274 m; draft 9.5 m.

Type: Ship. MMSI: 636015302.

Date/timePositionNaut miles runAvg speedWind from/ knotsBaromVisibWave heightAir tempDewpointWater temp
2017-Dec-18 10:16N 41°01' E 028°60'310.3
2017-Dec-18 10:00N 40°59' E 028°60'611.3
2017-Dec-18 09:30N 40°53' E 029°00'5 2.7
2017-Dec-18 07:34N 40°48' E 029°00'0 0.7
2017-Dec-18 07:30N 40°48' E 029°00'5 8.5
2017-Dec-18 06:55N 40°45' E 028°54'7 1.4
2017-Dec-18 01:46N 40°40' E 028°48'2 1.3
2017-Dec-18 00:28N 40°42' E 028°49'1 1.2
2017-Dec-17 23:46N 40°42' E 028°50'0 0.7
2017-Dec-17 23:16N 40°42' E 028°50'1 3.5
2017-Dec-17 22:59N 40°41' E 028°50'0 0.9
2017-Dec-17 22:30N 40°41' E 028°51'2 1.5
2017-Dec-17 20:56N 40°43' E 028°50'4 9.2
2017-Dec-17 20:30N 40°42' E 028°55'7 1.0
2017-Dec-17 13:49N 40°46' E 028°49'4 3.4
2017-Dec-17 12:36N 40°49' E 028°51'0 0.9
2017-Dec-17 12:31N 40°49' E 028°51'1 0.8
2017-Dec-17 11:00N 40°48' E 028°52'1 1.1
2017-Dec-17 10:24N 40°48' E 028°53'0 0.9
2017-Dec-17 10:00N 40°47' E 028°53'0 0.9
2017-Dec-17 09:30N 40°47' E 028°53'0 0.4
2017-Dec-17 08:55N 40°47' E 028°53'4 4.9
2017-Dec-17 08:13N 40°50' E 028°53'1 6.9
2017-Dec-17 08:00N 40°51' E 028°52'1 2.1
2017-Dec-17 07:23N 40°52' E 028°53'0 1.0
2017-Dec-17 06:59N 40°51' E 028°54'1 1.0
2017-Dec-17 06:29N 40°51' E 028°54'1 1.2
2017-Dec-17 05:41N 40°50' E 028°54'0 1.2
2017-Dec-17 05:29N 40°50' E 028°54'1 1.1
2017-Dec-17 04:59N 40°49' E 028°54'1 1.1
2017-Dec-17 04:29N 40°49' E 028°55'0 0.9
2017-Dec-17 03:59N 40°48' E 028°55'0 0.7
2017-Dec-17 03:29N 40°48' E 028°55'0 0.7
2017-Dec-17 02:59N 40°48' E 028°55'0 0.8
2017-Dec-17 02:29N 40°47' E 028°55'0 0.6
2017-Dec-17 01:59N 40°47' E 028°55'0 0.1
2017-Dec-16 23:53N 40°47' E 028°55'0 0.3
2017-Dec-16 23:29N 40°47' E 028°55'1 0.6
2017-Dec-16 22:35N 40°46' E 028°55'1 0.5
2017-Dec-16 21:11N 40°45' E 028°55'0 0.3
2017-Dec-16 20:59N 40°45' E 028°55'3 4.2
2017-Dec-16 20:11N 40°48' E 028°58'3 0.9
2017-Dec-16 16:58N 40°48' E 028°55'3 5.3
2017-Dec-16 16:30N 40°48' E 028°51'146 4.1
2017-Dec-15 04:30N 39°47' E 025°57'0 0.0
2017-Dec-15 03:45N 39°47' E 025°57'77 1.8
2017-Dec-13 09:49N 38°41' E 025°07'2412.5
2017-Dec-13 07:55N 38°20' E 024°53'512.6
2017-Dec-13 07:30N 38°15' E 024°50'1812.4
2017-Dec-13 06:05N 37°59' E 024°40'114.0
2017-Dec-13 06:00N 37°58' E 024°39'612.3
2017-Dec-13 05:30N 37°54' E 024°34'612.2
2017-Dec-13 05:00N 37°50' E 024°28'612.6
2017-Dec-13 04:30N 37°46' E 024°22'612.5
2017-Dec-13 04:00N 37°42' E 024°16'612.8
2017-Dec-13 03:30N 37°36' E 024°12'612.6
2017-Dec-13 03:00N 37°31' E 024°08'612.5
2017-Dec-13 02:30N 37°25' E 024°04'612.2
2017-Dec-13 02:00N 37°20' E 024°01'612.2
2017-Dec-13 01:30N 37°14' E 023°58'611.8
2017-Dec-13 01:00N 37°09' E 023°55'612.1
2017-Dec-13 00:29N 37°03' E 023°51'612.2
2017-Dec-13 00:00N 36°58' E 023°48'612.0
2017-Dec-12 23:30N 36°52' E 023°45'612.0
2017-Dec-12 23:00N 36°47' E 023°42'612.2
2017-Dec-12 22:30N 36°41' E 023°39'612.6
2017-Dec-12 22:00N 36°36' E 023°36'612.7
2017-Dec-12 21:30N 36°30' E 023°32'612.6
2017-Dec-12 21:00N 36°24' E 023°29'40911.8
2017-Dec-11 10:19N 36°19' E 015°02'412.8
2017-Dec-11 10:00N 36°20' E 014°57'713.6
2017-Dec-11 09:30N 36°20' E 014°48'713.2
2017-Dec-11 09:00N 36°20' E 014°40'612.4
2017-Dec-11 08:30N 36°23' E 014°33'612.6
2017-Dec-11 08:00N 36°26' E 014°27'613.1
2017-Dec-11 07:30N 36°30' E 014°20'714.4
2017-Dec-11 07:00N 36°34' E 014°12'714.2
2017-Dec-11 06:30N 36°38' E 014°05'62412.5
2017-Dec-09 04:45N 40°53' E 001°55'313.4
2017-Dec-09 04:30N 40°55' E 001°51'813.6
2017-Dec-09 03:54N 40°57' E 001°41'  

Dump ship's entire track history